createdAt,value
2023-04-28T00:00:54.009Z,12.40
2023-04-28T00:03:21.951Z,12.40
2023-04-28T00:05:51.331Z,12.41
2023-04-28T00:08:21.636Z,12.39
2023-04-28T00:10:49.426Z,12.38
2023-04-28T00:13:17.206Z,12.37
2023-04-28T00:15:45.006Z,12.36
2023-04-28T00:18:12.820Z,12.35
2023-04-28T00:20:40.677Z,12.34
2023-04-28T00:23:09.851Z,12.33
2023-04-28T00:25:37.619Z,12.30
2023-04-28T00:28:05.508Z,12.30
2023-04-28T00:30:33.479Z,12.29
2023-04-28T00:33:01.291Z,12.27
2023-04-28T00:35:29.160Z,12.26
2023-04-28T00:37:57.093Z,12.25
2023-04-28T00:40:34.268Z,12.27
2023-04-28T00:43:02.143Z,12.22
2023-04-28T00:45:29.999Z,12.22
2023-04-28T00:47:58.420Z,12.23
2023-04-28T00:50:27.017Z,12.23
2023-04-28T00:52:54.838Z,12.22
2023-04-28T00:55:23.274Z,12.22
2023-04-28T00:57:52.887Z,12.23
2023-04-28T01:00:20.919Z,12.22
2023-04-28T01:02:48.916Z,12.22
2023-04-28T01:05:17.833Z,12.19
2023-04-28T01:07:46.070Z,12.18
2023-04-28T01:10:13.861Z,12.19
2023-04-28T01:12:41.783Z,12.17
2023-04-28T01:15:17.259Z,12.21
2023-04-28T01:17:46.787Z,12.15
2023-04-28T01:20:14.904Z,12.13
2023-04-28T01:22:42.831Z,12.11
2023-04-28T01:25:12.160Z,12.10
2023-04-28T01:27:40.014Z,12.05
2023-04-28T01:30:09.451Z,12.04
2023-04-28T01:32:37.398Z,12.01
2023-04-28T01:35:05.608Z,11.99
2023-04-28T01:37:35.987Z,11.97
2023-04-28T01:40:04.310Z,11.97
2023-04-28T01:42:33.817Z,11.95
2023-04-28T01:45:03.438Z,11.91
2023-04-28T01:47:31.215Z,11.90
2023-04-28T01:49:59.120Z,11.88
2023-04-28T01:52:27.921Z,11.86
2023-04-28T01:54:55.988Z,11.85
2023-04-28T01:57:23.935Z,11.83
2023-04-28T01:59:54.021Z,11.83
2023-04-28T02:02:22.596Z,11.79
2023-04-28T02:04:50.627Z,11.77
2023-04-28T02:07:18.707Z,11.75
2023-04-28T02:09:46.726Z,11.73
2023-04-28T02:12:14.625Z,11.71
2023-04-28T02:14:42.542Z,11.68
2023-04-28T02:17:11.694Z,11.67
2023-04-28T02:19:39.615Z,11.63
2023-04-28T02:22:08.081Z,11.61
2023-04-28T02:24:37.519Z,11.58
2023-04-28T02:27:05.367Z,11.54
2023-04-28T02:29:33.166Z,11.52
2023-04-28T02:32:01.190Z,11.50
2023-04-28T02:34:30.365Z,11.50
2023-04-28T02:36:58.115Z,11.46
2023-04-28T02:39:27.187Z,11.44
2023-04-28T02:41:57.664Z,11.41
2023-04-28T02:44:25.614Z,11.41
2023-04-28T02:46:53.624Z,11.39
2023-04-28T02:49:21.484Z,11.38
2023-04-28T02:51:50.686Z,11.38
2023-04-28T02:54:27.192Z,11.35
2023-04-28T02:56:56.170Z,11.33
2023-04-28T02:59:25.044Z,11.31
2023-04-28T03:01:52.983Z,11.29
2023-04-28T03:04:21.117Z,11.27
2023-04-28T03:06:51.924Z,11.27
2023-04-28T03:09:19.758Z,11.23
2023-04-28T03:11:47.553Z,11.23
2023-04-28T03:14:15.789Z,11.20
2023-04-28T03:16:44.902Z,11.20
2023-04-28T03:19:12.830Z,11.18
2023-04-28T03:21:40.645Z,11.16
2023-04-28T03:24:09.916Z,11.16
2023-04-28T03:26:37.949Z,11.13
2023-04-28T03:29:05.877Z,11.12
2023-04-28T03:31:33.767Z,11.11
2023-04-28T03:34:03.340Z,11.10
2023-04-28T03:36:32.075Z,11.08
2023-04-28T03:39:09.844Z,11.08
2023-04-28T03:41:37.713Z,11.05
2023-04-28T03:44:34.269Z,11.03
2023-04-28T03:47:03.044Z,11.02
2023-04-28T03:49:31.189Z,10.99
2023-04-28T03:51:59.321Z,10.99
2023-04-28T03:54:28.912Z,10.98
2023-04-28T03:56:56.822Z,10.96
2023-04-28T03:59:24.590Z,10.95
2023-04-28T04:01:52.502Z,10.94
2023-04-28T04:04:20.683Z,10.93
2023-04-28T04:06:49.170Z,10.91
2023-04-28T04:09:17.103Z,10.90
2023-04-28T04:11:46.634Z,10.91
2023-04-28T04:14:14.638Z,10.87
2023-04-28T04:16:42.858Z,10.86
2023-04-28T04:19:10.934Z,10.84
2023-04-28T04:21:42.720Z,10.82
2023-04-28T04:24:10.648Z,10.84
2023-04-28T04:26:38.924Z,10.83
2023-04-28T04:29:23.981Z,10.81
2023-04-28T04:31:52.513Z,10.81
2023-04-28T04:34:20.396Z,10.82
2023-04-28T04:36:48.281Z,10.82
2023-04-28T04:39:16.360Z,10.81
2023-04-28T04:41:44.244Z,10.80
2023-04-28T04:44:36.369Z,10.80
2023-04-28T04:47:06.168Z,10.80
2023-04-28T04:49:35.310Z,10.80
2023-04-28T04:52:04.156Z,10.81
2023-04-28T04:54:32.177Z,10.80
2023-04-28T04:57:00.257Z,10.82
2023-04-28T04:59:49.698Z,10.82
2023-04-28T05:02:19.262Z,10.80
2023-04-28T05:04:47.367Z,10.82
2023-04-28T05:07:16.510Z,10.82
2023-04-28T05:09:44.351Z,10.84
2023-04-28T05:12:12.804Z,10.84
2023-04-28T05:14:40.734Z,10.86
2023-04-28T05:17:09.934Z,10.89
2023-04-28T05:19:40.072Z,10.89
2023-04-28T05:22:08.724Z,10.91
2023-04-28T05:24:38.271Z,10.91
2023-04-28T05:27:06.062Z,10.92
2023-04-28T05:29:35.472Z,10.93
2023-04-28T05:32:03.411Z,10.95
2023-04-28T05:34:33.575Z,10.97
2023-04-28T05:37:02.145Z,10.97
2023-04-28T05:39:31.705Z,10.98
2023-04-28T05:42:04.463Z,10.98
2023-04-28T05:44:32.549Z,10.99
2023-04-28T05:47:01.385Z,11.01
2023-04-28T05:49:29.469Z,11.02
2023-04-28T05:52:05.300Z,11.04
2023-04-28T05:54:34.492Z,11.02
2023-04-28T05:57:02.695Z,11.02
2023-04-28T05:59:31.645Z,11.04
2023-04-28T06:01:59.538Z,11.05
2023-04-28T06:04:27.750Z,11.05
2023-04-28T06:06:55.822Z,11.07
2023-04-28T06:09:25.324Z,11.08
2023-04-28T06:11:54.401Z,11.08
2023-04-28T06:14:23.557Z,11.11
2023-04-28T06:16:52.259Z,11.12
2023-04-28T06:19:20.074Z,11.11
2023-04-28T06:21:50.257Z,11.14
2023-04-28T06:24:18.412Z,11.16
2023-04-28T06:26:49.063Z,11.18
2023-04-28T06:29:16.894Z,11.19
2023-04-28T06:31:45.028Z,11.22
2023-04-28T06:34:13.010Z,11.24
2023-04-28T06:36:40.904Z,11.27
2023-04-28T06:39:09.228Z,11.30
2023-04-28T06:41:37.097Z,11.32
2023-04-28T06:44:07.746Z,11.36
2023-04-28T06:46:37.891Z,11.39
2023-04-28T06:49:05.897Z,11.39
2023-04-28T06:51:33.906Z,11.40
2023-04-28T06:54:02.651Z,11.43
2023-04-28T06:56:30.729Z,11.44
2023-04-28T06:58:59.068Z,11.46
2023-04-28T07:01:28.569Z,11.47
2023-04-28T07:03:56.643Z,11.47
2023-04-28T07:06:24.600Z,11.48
2023-04-28T07:08:53.305Z,11.51
2023-04-28T07:11:21.118Z,11.51
2023-04-28T07:13:51.507Z,11.52
2023-04-28T07:16:19.647Z,11.54
2023-04-28T07:18:48.928Z,11.56
2023-04-28T07:21:17.518Z,11.54
2023-04-28T07:23:45.994Z,11.57
2023-04-28T07:26:16.326Z,11.58
2023-04-28T07:28:45.477Z,11.61
2023-04-28T07:31:13.333Z,11.61
2023-04-28T07:33:41.382Z,11.62
2023-04-28T07:36:10.822Z,11.66
2023-04-28T07:38:38.715Z,11.66
2023-04-28T07:41:08.804Z,11.69
2023-04-28T07:43:39.018Z,11.67
2023-04-28T07:46:08.586Z,11.73
2023-04-28T07:48:36.708Z,11.74
2023-04-28T07:51:04.589Z,11.75
2023-04-28T07:53:35.226Z,11.79
2023-04-28T07:56:03.314Z,11.80
2023-04-28T07:58:31.267Z,11.82
2023-04-28T08:00:59.150Z,11.85
2023-04-28T08:03:27.183Z,11.88
2023-04-28T08:05:55.821Z,11.89
2023-04-28T08:08:23.849Z,11.91
2023-04-28T08:10:53.092Z,11.94
2023-04-28T08:13:21.226Z,11.94
2023-04-28T08:15:49.427Z,11.95
2023-04-28T08:18:17.369Z,11.96
2023-04-28T08:20:45.622Z,11.98
2023-04-28T08:23:16.513Z,11.98
2023-04-28T08:25:44.539Z,12.01
2023-04-28T08:28:14.078Z,12.06
2023-04-28T08:30:42.058Z,12.08
2023-04-28T08:33:10.084Z,12.10
2023-04-28T08:35:38.095Z,12.13
2023-04-28T08:38:06.172Z,12.16
2023-04-28T08:40:34.536Z,12.16
2023-04-28T08:43:02.391Z,12.21
2023-04-28T08:45:33.757Z,12.25
2023-04-28T08:48:04.575Z,12.27
2023-04-28T08:50:34.450Z,12.28
2023-04-28T08:53:05.494Z,12.33
2023-04-28T08:55:34.418Z,12.31
2023-04-28T08:58:03.813Z,12.36
2023-04-28T09:00:33.220Z,12.37
2023-04-28T09:03:01.094Z,12.40
2023-04-28T09:05:29.067Z,12.42
2023-04-28T09:07:57.164Z,12.42
2023-04-28T09:10:27.476Z,12.46
2023-04-28T09:12:57.476Z,12.47
2023-04-28T09:15:33.253Z,12.49
2023-04-28T09:18:04.044Z,12.49
2023-04-28T09:20:33.714Z,12.50
2023-04-28T09:23:21.080Z,12.51
2023-04-28T09:26:00.977Z,12.54
2023-04-28T09:28:29.363Z,12.52
2023-04-28T09:30:57.421Z,12.57
2023-04-28T09:33:27.353Z,12.60
2023-04-28T09:35:55.660Z,12.61
2023-04-28T09:38:24.410Z,12.65
2023-04-28T09:40:57.870Z,12.70
2023-04-28T09:43:31.375Z,12.72
2023-04-28T09:46:00.577Z,12.74
2023-04-28T09:48:34.574Z,12.79
2023-04-28T09:51:05.943Z,12.80
2023-04-28T09:53:34.354Z,12.81
2023-04-28T09:56:05.106Z,12.84
2023-04-28T09:58:35.463Z,12.88
2023-04-28T10:01:04.174Z,12.91
2023-04-28T10:03:33.720Z,12.94
2023-04-28T10:06:04.275Z,12.95
2023-04-28T10:08:32.177Z,12.95
2023-04-28T10:11:00.768Z,12.97
2023-04-28T10:13:29.539Z,12.97
2023-04-28T10:15:58.583Z,12.99
2023-04-28T10:18:27.040Z,12.97
2023-04-28T10:20:59.572Z,13.01
2023-04-28T10:23:54.201Z,12.98
2023-04-28T10:26:25.679Z,12.98
2023-04-28T10:28:53.931Z,13.00
2023-04-28T10:31:22.951Z,13.02
2023-04-28T10:33:51.217Z,13.03
2023-04-28T10:36:52.361Z,13.05
2023-04-28T10:39:20.711Z,13.03
2023-04-28T10:41:49.460Z,13.06
2023-04-28T10:44:43.908Z,13.06
2023-04-28T10:47:12.415Z,13.06
2023-04-28T10:50:06.859Z,13.08
2023-04-28T10:52:51.979Z,13.07
2023-04-28T10:55:32.993Z,13.10
2023-04-28T10:58:32.974Z,13.09
2023-04-28T11:01:26.667Z,13.09
2023-04-28T11:04:00.773Z,13.11
2023-04-28T11:06:31.126Z,13.14
2023-04-28T11:09:02.181Z,13.18
2023-04-28T11:11:30.352Z,13.19
2023-04-28T11:14:32.874Z,13.17
2023-04-28T11:17:03.169Z,13.21
2023-04-28T11:19:33.180Z,13.30
2023-04-28T11:22:02.741Z,13.34
2023-04-28T11:24:32.431Z,13.36
2023-04-28T11:27:01.200Z,13.39
2023-04-28T11:29:33.739Z,13.42
2023-04-28T11:32:02.062Z,13.43
2023-04-28T11:34:30.068Z,13.45
2023-04-28T11:36:58.086Z,13.48
2023-04-28T11:39:33.484Z,13.55
2023-04-28T11:42:03.270Z,13.54
2023-04-28T11:44:32.403Z,13.60
2023-04-28T11:47:02.901Z,13.65
2023-04-28T11:49:33.691Z,13.70
2023-04-28T11:52:06.671Z,13.75
2023-04-28T11:54:37.033Z,13.80
2023-04-28T11:57:06.685Z,13.88
2023-04-28T11:59:36.076Z,13.96
2023-04-28T12:02:06.779Z,14.01
2023-04-28T12:04:36.728Z,14.08
2023-04-28T12:07:07.134Z,14.14
2023-04-28T12:09:36.716Z,14.19
2023-04-28T12:12:05.923Z,14.24
2023-04-28T12:14:36.020Z,14.29
2023-04-28T12:17:04.202Z,14.33
2023-04-28T12:19:44.835Z,14.41
2023-04-28T12:22:13.055Z,14.42
2023-04-28T12:24:42.264Z,14.52
2023-04-28T12:27:21.833Z,14.56
2023-04-28T12:29:51.030Z,14.56
2023-04-28T12:32:20.314Z,14.63
2023-04-28T12:34:50.750Z,14.70
2023-04-28T12:37:18.726Z,14.75
2023-04-28T12:39:47.936Z,14.82
2023-04-28T12:42:16.005Z,14.88
2023-04-28T12:44:43.819Z,14.92
2023-04-28T12:47:12.191Z,14.99
2023-04-28T12:49:41.525Z,15.04
2023-04-28T12:52:09.681Z,15.09
2023-04-28T12:54:38.164Z,15.12
2023-04-28T12:57:07.398Z,15.19
2023-04-28T12:59:35.221Z,15.21
2023-04-28T13:02:03.451Z,15.26
2023-04-28T13:04:32.055Z,15.30
2023-04-28T13:07:02.441Z,15.34
2023-04-28T13:09:30.603Z,15.39
2023-04-28T13:11:58.645Z,15.42
2023-04-28T13:14:29.070Z,15.49
2023-04-28T13:16:57.683Z,15.55
2023-04-28T13:19:25.852Z,15.59
2023-04-28T13:21:54.109Z,15.65
2023-04-28T13:24:21.871Z,15.69
2023-04-28T13:26:50.036Z,15.79
2023-04-28T13:29:18.189Z,15.82
2023-04-28T13:31:47.443Z,15.91
2023-04-28T13:34:16.361Z,15.96
2023-04-28T13:36:45.052Z,16.01
2023-04-28T13:39:14.697Z,16.05
2023-04-28T13:41:43.153Z,16.11
2023-04-28T13:44:11.246Z,16.16
2023-04-28T13:46:39.281Z,16.20
2023-04-28T13:49:08.583Z,16.27
2023-04-28T13:51:36.466Z,16.30
2023-04-28T13:54:05.404Z,16.34
2023-04-28T13:56:33.461Z,16.37
2023-04-28T14:01:29.124Z,16.45
2023-04-28T14:03:57.269Z,16.51
2023-04-28T14:06:27.692Z,16.56
2023-04-28T14:08:55.555Z,16.58
2023-04-28T14:11:23.457Z,16.61
2023-04-28T14:13:51.275Z,16.65
2023-04-28T14:16:19.199Z,16.70
2023-04-28T14:18:47.078Z,16.75
2023-04-28T14:21:19.161Z,16.79
2023-04-28T14:23:49.177Z,16.84
2023-04-28T14:26:17.061Z,16.90
2023-04-28T14:28:44.898Z,16.95
2023-04-28T14:31:13.382Z,16.99
2023-04-28T14:33:41.636Z,17.06
2023-04-28T14:36:10.257Z,17.10
2023-04-28T14:38:40.040Z,17.16
2023-04-28T14:41:09.511Z,17.23
2023-04-28T14:43:37.935Z,17.25
2023-04-28T14:46:06.132Z,17.30
2023-04-28T14:48:34.491Z,17.33
2023-04-28T14:51:02.614Z,17.35
2023-04-28T14:53:31.975Z,17.37
2023-04-28T14:56:11.242Z,17.40
2023-04-28T14:58:47.639Z,17.42
2023-04-28T15:01:15.497Z,17.43
2023-04-28T15:03:44.492Z,17.44
2023-04-28T15:06:13.364Z,17.43
2023-04-28T15:08:41.361Z,17.42
2023-04-28T15:11:09.530Z,17.43
2023-04-28T15:13:37.662Z,17.42
2023-04-28T15:16:07.922Z,17.43
2023-04-28T15:18:35.939Z,17.41
2023-04-28T15:21:03.820Z,17.40
2023-04-28T15:23:31.761Z,17.38
2023-04-28T15:25:59.670Z,17.37
2023-04-28T15:28:28.246Z,17.36
2023-04-28T15:30:56.140Z,17.36
2023-04-28T15:33:25.341Z,17.36
2023-04-28T15:35:53.180Z,17.32
2023-04-28T15:38:21.007Z,17.31
2023-04-28T15:40:49.764Z,17.29
2023-04-28T15:43:18.685Z,17.28
2023-04-28T15:45:47.571Z,17.24
2023-04-28T15:48:16.344Z,17.20
2023-04-28T15:50:46.591Z,17.20
2023-04-28T15:53:14.499Z,17.14
2023-04-28T15:55:42.340Z,17.10
2023-04-28T15:58:10.924Z,17.05
2023-04-28T16:00:40.548Z,17.00
2023-04-28T16:03:08.743Z,16.98
2023-04-28T16:05:36.799Z,16.94
2023-04-28T16:08:06.277Z,16.92
2023-04-28T16:10:34.148Z,16.87
2023-04-28T16:13:02.622Z,16.84
2023-04-28T16:15:30.506Z,16.82
2023-04-28T16:17:58.905Z,16.78
2023-04-28T16:20:27.027Z,16.76
2023-04-28T16:22:55.083Z,16.72
2023-04-28T16:25:24.489Z,16.70
2023-04-28T16:27:52.306Z,16.66
2023-04-28T16:30:20.345Z,16.62
2023-04-28T16:32:48.218Z,16.59
2023-04-28T16:35:16.427Z,16.55
2023-04-28T16:37:44.395Z,16.52
2023-04-28T16:40:13.532Z,16.51
2023-04-28T16:42:43.567Z,16.48
2023-04-28T16:45:12.271Z,16.43
2023-04-28T16:47:42.212Z,16.39
2023-04-28T16:50:11.402Z,16.36
2023-04-28T16:52:39.246Z,16.32
2023-04-28T16:55:08.153Z,16.30
2023-04-28T16:57:36.124Z,16.26
2023-04-28T17:00:06.204Z,16.24
2023-04-28T17:02:34.510Z,16.19
2023-04-28T17:05:02.468Z,16.18
2023-04-28T17:07:30.314Z,16.14
2023-04-28T17:09:58.376Z,16.11
2023-04-28T17:12:26.559Z,16.10
2023-04-28T17:14:54.788Z,16.07
2023-04-28T17:17:24.107Z,16.08
2023-04-28T17:19:52.125Z,16.05
2023-04-28T17:22:19.973Z,16.03
2023-04-28T17:24:47.804Z,16.02
2023-04-28T17:27:16.180Z,16.01
2023-04-28T17:29:44.366Z,16.00
2023-04-28T17:32:12.228Z,15.98
2023-04-28T17:34:41.653Z,15.98
2023-04-28T17:37:09.797Z,15.95
2023-04-28T17:39:37.619Z,15.93
2023-04-28T17:42:05.590Z,15.92
2023-04-28T17:44:33.385Z,15.89
2023-04-28T17:47:02.333Z,15.88
2023-04-28T17:49:30.316Z,15.86
2023-04-28T17:51:59.960Z,15.86
2023-04-28T17:54:27.906Z,15.83
2023-04-28T17:56:55.862Z,15.80
2023-04-28T17:59:24.038Z,15.79
2023-04-28T18:01:53.715Z,15.77
2023-04-28T18:04:21.766Z,15.74
2023-04-28T18:06:49.710Z,15.71
2023-04-28T18:09:18.989Z,15.71
2023-04-28T18:11:47.136Z,15.69
2023-04-28T18:14:18.280Z,15.67
2023-04-28T18:16:46.511Z,15.65
2023-04-28T18:19:14.624Z,15.65
2023-04-28T18:21:42.642Z,15.64
2023-04-28T18:24:10.569Z,15.62
2023-04-28T18:26:39.844Z,15.62
2023-04-28T18:29:07.801Z,15.59
2023-04-28T18:31:35.879Z,15.57
2023-04-28T18:34:05.126Z,15.57
2023-04-28T18:36:34.851Z,15.55
2023-04-28T18:39:03.689Z,15.53
2023-04-28T18:41:33.769Z,15.53
2023-04-28T18:44:03.225Z,15.52
2023-04-28T18:46:31.382Z,15.50
2023-04-28T18:48:59.252Z,15.49
2023-04-28T18:51:27.199Z,15.48
2023-04-28T18:53:55.049Z,15.46
2023-04-28T18:56:23.692Z,15.44
2023-04-28T18:58:51.769Z,15.42
2023-04-28T19:01:21.251Z,15.42
2023-04-28T19:03:49.943Z,15.40
2023-04-28T19:06:17.969Z,15.38
2023-04-28T19:08:45.814Z,15.37
2023-04-28T19:11:13.797Z,15.36
2023-04-28T19:13:41.719Z,15.35
2023-04-28T19:16:09.638Z,15.34
2023-04-28T19:18:39.555Z,15.33
2023-04-28T19:21:07.472Z,15.32
2023-04-28T19:23:35.783Z,15.32
2023-04-28T19:26:03.701Z,15.30
2023-04-28T19:28:31.576Z,15.30
2023-04-28T19:30:59.578Z,15.29
2023-04-28T19:33:28.435Z,15.28
2023-04-28T19:35:58.469Z,15.30
2023-04-28T19:38:26.562Z,15.28
2023-04-28T19:41:00.624Z,15.30
2023-04-28T19:43:28.668Z,15.27
2023-04-28T19:45:56.963Z,15.27
2023-04-28T19:48:26.299Z,15.26
2023-04-28T19:50:54.203Z,15.25
2023-04-28T19:53:23.540Z,15.26
2023-04-28T19:55:51.513Z,15.23
2023-04-28T19:58:19.450Z,15.22
2023-04-28T20:00:47.854Z,15.22
2023-04-28T20:03:16.394Z,15.20
2023-04-28T20:05:44.358Z,15.20
2023-04-28T20:08:13.465Z,15.20
2023-04-28T20:10:42.740Z,15.19
2023-04-28T20:13:10.831Z,15.15
2023-04-28T20:15:39.070Z,15.15
2023-04-28T20:18:07.054Z,15.14
2023-04-28T20:20:34.901Z,15.13
2023-04-28T20:23:02.819Z,15.11
2023-04-28T20:25:30.656Z,15.09
2023-04-28T20:27:59.862Z,15.09
2023-04-28T20:30:28.320Z,15.07
2023-04-28T20:32:56.374Z,15.06
2023-04-28T20:35:24.547Z,15.04
2023-04-28T20:37:52.763Z,15.03
2023-04-28T20:40:20.741Z,15.02
2023-04-28T20:42:49.472Z,15.01
2023-04-28T20:45:19.285Z,15.01
2023-04-28T20:47:47.291Z,14.99
2023-04-28T20:50:15.609Z,14.99
2023-04-28T20:52:43.553Z,14.96
2023-04-28T20:55:12.163Z,14.96
2023-04-28T20:57:40.238Z,14.94
2023-04-28T21:00:09.345Z,14.95
2023-04-28T21:02:38.837Z,14.95
2023-04-28T21:05:07.530Z,14.94
2023-04-28T21:07:35.418Z,14.92
2023-04-28T21:10:03.543Z,14.90
2023-04-28T21:12:31.472Z,14.90
2023-04-28T21:15:00.752Z,14.88
2023-04-28T21:17:28.796Z,14.87
2023-04-28T21:19:58.326Z,14.87
2023-04-28T21:22:27.723Z,14.83
2023-04-28T21:24:55.804Z,14.81
2023-04-28T21:27:24.108Z,14.79
2023-04-28T21:29:52.878Z,14.77
2023-04-28T21:32:20.972Z,14.76
2023-04-28T21:34:49.607Z,14.74
2023-04-28T21:37:18.893Z,14.74
2023-04-28T21:39:47.062Z,14.71
2023-04-28T21:42:14.914Z,14.70
2023-04-28T21:44:42.774Z,14.69
2023-04-28T21:47:10.763Z,14.67
2023-04-28T21:49:38.635Z,14.65
2023-04-28T21:52:06.563Z,14.62
2023-04-28T21:54:35.795Z,14.63
2023-04-28T21:57:03.691Z,14.59
2023-04-28T21:59:31.555Z,14.58
2023-04-28T22:01:59.741Z,14.57
2023-04-28T22:04:27.842Z,14.55
2023-04-28T22:06:56.036Z,14.54
2023-04-28T22:09:24.136Z,14.52
2023-04-28T22:11:53.355Z,14.53
2023-04-28T22:14:38.717Z,14.49
2023-04-28T22:17:07.944Z,14.46
2023-04-28T22:19:35.746Z,14.45
2023-04-28T22:22:03.515Z,14.44
2023-04-28T22:24:31.658Z,14.44
2023-04-28T22:27:00.906Z,14.44
2023-04-28T22:29:29.392Z,14.42
2023-04-28T22:31:58.621Z,14.40
2023-04-28T22:34:26.519Z,14.39
2023-04-28T22:36:54.447Z,14.38
2023-04-28T22:39:24.883Z,14.36
2023-04-28T22:41:52.810Z,14.36
2023-04-28T22:44:21.956Z,14.37
2023-04-28T22:46:49.905Z,14.34
2023-04-28T22:49:17.771Z,14.34
2023-04-28T22:51:45.695Z,14.33
2023-04-28T22:54:13.689Z,14.31
2023-04-28T22:56:42.171Z,14.30
2023-04-28T22:59:10.743Z,14.29
2023-04-28T23:01:40.646Z,14.28
2023-04-28T23:04:09.153Z,14.26
2023-04-28T23:06:37.070Z,14.24
2023-04-28T23:09:05.516Z,14.23
2023-04-28T23:11:33.323Z,14.20
2023-04-28T23:14:01.301Z,14.18
2023-04-28T23:16:29.105Z,14.16
2023-04-28T23:18:58.342Z,14.14
2023-04-28T23:21:26.282Z,14.12
2023-04-28T23:23:54.137Z,14.10
2023-04-28T23:26:22.048Z,14.08
2023-04-28T23:28:49.831Z,14.05
2023-04-28T23:31:17.696Z,14.04
2023-04-28T23:33:45.517Z,14.02
2023-04-28T23:36:15.134Z,14.02
2023-04-28T23:38:42.942Z,13.98
2023-04-28T23:41:10.805Z,13.97
2023-04-28T23:43:38.712Z,13.96
2023-04-28T23:46:06.758Z,13.96
2023-04-28T23:48:34.808Z,13.95
2023-04-28T23:51:02.632Z,13.95
2023-04-28T23:53:31.793Z,13.95
2023-04-28T23:55:59.566Z,13.93
2023-04-28T23:58:27.409Z,13.92
